sensor_id;sensor_type;location;lat;lon;timestamp;temperature;humidity
17740;DHT22;8990;33.226;-97.150;2022-12-18T00:01:45;8.80;98.00
17740;DHT22;8990;33.226;-97.150;2022-12-18T00:04:20;8.60;98.80
17740;DHT22;8990;33.226;-97.150;2022-12-18T00:06:51;8.50;99.40
17740;DHT22;8990;33.226;-97.150;2022-12-18T00:09:20;8.40;99.40
17740;DHT22;8990;33.226;-97.150;2022-12-18T00:11:49;8.20;99.70
17740;DHT22;8990;33.226;-97.150;2022-12-18T00:14:18;8.10;99.90
17740;DHT22;8990;33.226;-97.150;2022-12-18T00:16:50;7.90;99.90
17740;DHT22;8990;33.226;-97.150;2022-12-18T00:19:19;7.70;99.90
17740;DHT22;8990;33.226;-97.150;2022-12-18T00:21:49;7.70;99.90
17740;DHT22;8990;33.226;-97.150;2022-12-18T00:24:18;7.70;99.90
17740;DHT22;8990;33.226;-97.150;2022-12-18T00:26:48;7.50;99.90
17740;DHT22;8990;33.226;-97.150;2022-12-18T00:29:18;7.50;99.90
17740;DHT22;8990;33.226;-97.150;2022-12-18T00:31:50;7.40;99.90
17740;DHT22;8990;33.226;-97.150;2022-12-18T00:34:20;7.30;99.90
17740;DHT22;8990;33.226;-97.150;2022-12-18T00:36:49;7.20;99.90
17740;DHT22;8990;33.226;-97.150;2022-12-18T00:39:18;7.20;99.90
17740;DHT22;8990;33.226;-97.150;2022-12-18T00:41:48;7.10;99.90
17740;DHT22;8990;33.226;-97.150;2022-12-18T00:44:34;7.10;99.90
17740;DHT22;8990;33.226;-97.150;2022-12-18T00:47:06;7.00;99.90
17740;DHT22;8990;33.226;-97.150;2022-12-18T00:49:36;7.00;99.90
17740;DHT22;8990;33.226;-97.150;2022-12-18T00:52:06;6.90;99.90
17740;DHT22;8990;33.226;-97.150;2022-12-18T00:54:36;6.80;99.90
17740;DHT22;8990;33.226;-97.150;2022-12-18T00:57:05;6.80;99.90
17740;DHT22;8990;33.226;-97.150;2022-12-18T00:59:34;6.80;99.90
17740;DHT22;8990;33.226;-97.150;2022-12-18T01:02:05;6.70;99.90
17740;DHT22;8990;33.226;-97.150;2022-12-18T01:04:34;6.70;99.90
17740;DHT22;8990;33.226;-97.150;2022-12-18T01:07:04;6.60;99.90
17740;DHT22;8990;33.226;-97.150;2022-12-18T01:09:35;6.60;99.90
17740;DHT22;8990;33.226;-97.150;2022-12-18T01:12:05;6.40;99.90
17740;DHT22;8990;33.226;-97.150;2022-12-18T01:14:36;6.40;99.90
17740;DHT22;8990;33.226;-97.150;2022-12-18T01:17:07;6.30;99.90
17740;DHT22;8990;33.226;-97.150;2022-12-18T01:19:38;6.20;99.90
17740;DHT22;8990;33.226;-97.150;2022-12-18T01:22:10;6.10;99.90
17740;DHT22;8990;33.226;-97.150;2022-12-18T01:24:41;6.00;99.90
17740;DHT22;8990;33.226;-97.150;2022-12-18T01:27:10;6.00;99.90
17740;DHT22;8990;33.226;-97.150;2022-12-18T01:29:40;5.90;99.90
17740;DHT22;8990;33.226;-97.150;2022-12-18T01:32:11;5.90;99.90
17740;DHT22;8990;33.226;-97.150;2022-12-18T01:34:42;5.80;99.90
17740;DHT22;8990;33.226;-97.150;2022-12-18T01:37:11;5.70;99.90
17740;DHT22;8990;33.226;-97.150;2022-12-18T01:39:41;5.70;99.90
17740;DHT22;8990;33.226;-97.150;2022-12-18T01:42:12;5.70;99.90
17740;DHT22;8990;33.226;-97.150;2022-12-18T01:45:04;5.50;99.90
17740;DHT22;8990;33.226;-97.150;2022-12-18T01:47:39;5.50;99.90
17740;DHT22;8990;33.226;-97.150;2022-12-18T01:50:13;5.50;99.90
17740;DHT22;8990;33.226;-97.150;2022-12-18T01:52:45;5.40;99.90
17740;DHT22;8990;33.226;-97.150;2022-12-18T01:55:16;5.40;99.90
17740;DHT22;8990;33.226;-97.150;2022-12-18T01:57:47;5.40;99.90
17740;DHT22;8990;33.226;-97.150;2022-12-18T02:00:20;5.30;99.90
17740;DHT22;8990;33.226;-97.150;2022-12-18T02:02:53;5.30;99.90
17740;DHT22;8990;33.226;-97.150;2022-12-18T02:05:34;5.20;99.90
17740;DHT22;8990;33.226;-97.150;2022-12-18T02:08:10;5.20;99.90
17740;DHT22;8990;33.226;-97.150;2022-12-18T02:10:47;5.10;99.90
17740;DHT22;8990;33.226;-97.150;2022-12-18T02:13:30;4.70;99.90
17740;DHT22;8990;33.226;-97.150;2022-12-18T02:16:08;4.70;99.90
17740;DHT22;8990;33.226;-97.150;2022-12-18T02:18:44;4.60;99.90
17740;DHT22;8990;33.226;-97.150;2022-12-18T02:21:23;4.50;99.90
17740;DHT22;8990;33.226;-97.150;2022-12-18T02:24:00;4.50;99.90
17740;DHT22;8990;33.226;-97.150;2022-12-18T02:26:37;4.50;99.90
17740;DHT22;8990;33.226;-97.150;2022-12-18T02:29:11;4.50;99.90
17740;DHT22;8990;33.226;-97.150;2022-12-18T02:31:47;4.50;99.90
17740;DHT22;8990;33.226;-97.150;2022-12-18T02:34:17;4.50;99.90
17740;DHT22;8990;33.226;-97.150;2022-12-18T02:36:48;4.50;99.90
17740;DHT22;8990;33.226;-97.150;2022-12-18T02:39:21;4.50;99.90
17740;DHT22;8990;33.226;-97.150;2022-12-18T02:42:05;4.40;99.90
17740;DHT22;8990;33.226;-97.150;2022-12-18T02:44:42;4.30;99.90
17740;DHT22;8990;33.226;-97.150;2022-12-18T02:47:13;4.30;99.90
17740;DHT22;8990;33.226;-97.150;2022-12-18T02:49:51;4.30;99.90
17740;DHT22;8990;33.226;-97.150;2022-12-18T02:52:30;4.30;99.90
17740;DHT22;8990;33.226;-97.150;2022-12-18T02:55:13;4.10;99.90
17740;DHT22;8990;33.226;-97.150;2022-12-18T02:57:55;4.00;99.90
17740;DHT22;8990;33.226;-97.150;2022-12-18T03:00:35;4.00;99.90
17740;DHT22;8990;33.226;-97.150;2022-12-18T03:03:10;4.00;99.90
17740;DHT22;8990;33.226;-97.150;2022-12-18T03:05:44;4.00;99.90
17740;DHT22;8990;33.226;-97.150;2022-12-18T03:08:18;3.90;99.90
17740;DHT22;8990;33.226;-97.150;2022-12-18T03:10:53;3.90;99.90
17740;DHT22;8990;33.226;-97.150;2022-12-18T03:13:30;3.90;99.90
17740;DHT22;8990;33.226;-97.150;2022-12-18T03:16:06;3.90;99.90
17740;DHT22;8990;33.226;-97.150;2022-12-18T03:18:42;3.90;99.90
17740;DHT22;8990;33.226;-97.150;2022-12-18T03:21:14;3.90;99.90
17740;DHT22;8990;33.226;-97.150;2022-12-18T03:23:48;3.80;99.90
17740;DHT22;8990;33.226;-97.150;2022-12-18T03:26:21;3.90;99.90
17740;DHT22;8990;33.226;-97.150;2022-12-18T03:29:02;3.80;99.90
17740;DHT22;8990;33.226;-97.150;2022-12-18T03:31:39;3.60;99.90
17740;DHT22;8990;33.226;-97.150;2022-12-18T03:34:12;3.60;99.90
17740;DHT22;8990;33.226;-97.150;2022-12-18T03:36:47;3.60;99.90
17740;DHT22;8990;33.226;-97.150;2022-12-18T03:39:16;3.50;99.90
17740;DHT22;8990;33.226;-97.150;2022-12-18T03:41:57;3.50;99.90
17740;DHT22;8990;33.226;-97.150;2022-12-18T03:44:42;3.40;99.90
17740;DHT22;8990;33.226;-97.150;2022-12-18T03:47:16;3.40;99.90
17740;DHT22;8990;33.226;-97.150;2022-12-18T03:49:54;3.40;99.90
17740;DHT22;8990;33.226;-97.150;2022-12-18T03:52:35;3.40;99.90
17740;DHT22;8990;33.226;-97.150;2022-12-18T03:55:07;3.40;99.90
17740;DHT22;8990;33.226;-97.150;2022-12-18T03:57:40;3.30;99.90
17740;DHT22;8990;33.226;-97.150;2022-12-18T04:00:16;3.20;99.90
17740;DHT22;8990;33.226;-97.150;2022-12-18T04:02:56;3.20;99.90
17740;DHT22;8990;33.226;-97.150;2022-12-18T04:05:34;3.20;99.90
17740;DHT22;8990;33.226;-97.150;2022-12-18T04:08:07;3.30;99.90
17740;DHT22;8990;33.226;-97.150;2022-12-18T04:10:40;3.30;99.90
17740;DHT22;8990;33.226;-97.150;2022-12-18T04:13:10;3.20;99.90
17740;DHT22;8990;33.226;-97.150;2022-12-18T04:15:42;3.00;99.90
17740;DHT22;8990;33.226;-97.150;2022-12-18T04:18:15;3.00;99.90
17740;DHT22;8990;33.226;-97.150;2022-12-18T04:20:44;3.00;99.90
17740;DHT22;8990;33.226;-97.150;2022-12-18T04:23:15;3.00;99.90
17740;DHT22;8990;33.226;-97.150;2022-12-18T04:25:45;2.90;99.90
17740;DHT22;8990;33.226;-97.150;2022-12-18T04:28:21;2.90;99.90
17740;DHT22;8990;33.226;-97.150;2022-12-18T04:30:54;2.90;99.90
17740;DHT22;8990;33.226;-97.150;2022-12-18T04:33:23;2.90;99.90
17740;DHT22;8990;33.226;-97.150;2022-12-18T04:35:54;2.80;99.90
17740;DHT22;8990;33.226;-97.150;2022-12-18T04:38:25;2.80;99.90
17740;DHT22;8990;33.226;-97.150;2022-12-18T04:41:03;2.90;99.90
17740;DHT22;8990;33.226;-97.150;2022-12-18T04:43:32;2.90;99.90
17740;DHT22;8990;33.226;-97.150;2022-12-18T04:46:05;2.90;99.90
17740;DHT22;8990;33.226;-97.150;2022-12-18T04:48:37;2.90;99.90
17740;DHT22;8990;33.226;-97.150;2022-12-18T04:51:07;2.70;99.90
17740;DHT22;8990;33.226;-97.150;2022-12-18T04:53:36;2.60;99.90
17740;DHT22;8990;33.226;-97.150;2022-12-18T04:56:08;2.50;99.90
17740;DHT22;8990;33.226;-97.150;2022-12-18T04:58:38;2.60;99.90
17740;DHT22;8990;33.226;-97.150;2022-12-18T05:01:11;2.50;99.90
17740;DHT22;8990;33.226;-97.150;2022-12-18T05:03:41;2.40;99.90
17740;DHT22;8990;33.226;-97.150;2022-12-18T05:06:11;2.40;99.90
17740;DHT22;8990;33.226;-97.150;2022-12-18T05:08:40;2.40;99.90
17740;DHT22;8990;33.226;-97.150;2022-12-18T05:11:12;2.40;99.90
17740;DHT22;8990;33.226;-97.150;2022-12-18T05:13:42;2.30;99.90
17740;DHT22;8990;33.226;-97.150;2022-12-18T05:16:14;2.30;99.90
17740;DHT22;8990;33.226;-97.150;2022-12-18T05:18:43;2.20;99.90
17740;DHT22;8990;33.226;-97.150;2022-12-18T05:21:13;2.20;99.90
17740;DHT22;8990;33.226;-97.150;2022-12-18T05:23:42;2.30;99.90
17740;DHT22;8990;33.226;-97.150;2022-12-18T05:26:16;2.30;99.90
17740;DHT22;8990;33.226;-97.150;2022-12-18T05:28:46;2.30;99.90
17740;DHT22;8990;33.226;-97.150;2022-12-18T05:31:17;2.40;99.90
17740;DHT22;8990;33.226;-97.150;2022-12-18T05:33:48;2.30;99.90
17740;DHT22;8990;33.226;-97.150;2022-12-18T05:36:17;2.30;99.90
17740;DHT22;8990;33.226;-97.150;2022-12-18T05:38:46;2.30;99.90
17740;DHT22;8990;33.226;-97.150;2022-12-18T05:41:15;2.30;99.90
17740;DHT22;8990;33.226;-97.150;2022-12-18T05:43:45;2.20;99.90
17740;DHT22;8990;33.226;-97.150;2022-12-18T05:46:18;2.20;99.90
17740;DHT22;8990;33.226;-97.150;2022-12-18T05:48:48;2.20;99.90
17740;DHT22;8990;33.226;-97.150;2022-12-18T05:51:21;2.10;99.90
17740;DHT22;8990;33.226;-97.150;2022-12-18T05:53:50;2.00;99.90
17740;DHT22;8990;33.226;-97.150;2022-12-18T05:56:22;1.90;99.90
17740;DHT22;8990;33.226;-97.150;2022-12-18T05:58:52;1.90;99.90
17740;DHT22;8990;33.226;-97.150;2022-12-18T06:01:25;1.90;99.90
17740;DHT22;8990;33.226;-97.150;2022-12-18T06:03:55;1.90;99.90
17740;DHT22;8990;33.226;-97.150;2022-12-18T06:06:27;1.90;99.90
17740;DHT22;8990;33.226;-97.150;2022-12-18T06:08:57;1.90;99.90
17740;DHT22;8990;33.226;-97.150;2022-12-18T06:11:28;1.90;99.90
17740;DHT22;8990;33.226;-97.150;2022-12-18T06:13:58;1.90;99.90
17740;DHT22;8990;33.226;-97.150;2022-12-18T06:16:29;1.80;99.90
17740;DHT22;8990;33.226;-97.150;2022-12-18T06:18:59;1.80;99.90
17740;DHT22;8990;33.226;-97.150;2022-12-18T06:21:29;1.70;99.90
17740;DHT22;8990;33.226;-97.150;2022-12-18T06:23:59;1.70;99.90
17740;DHT22;8990;33.226;-97.150;2022-12-18T06:26:29;1.70;99.90
17740;DHT22;8990;33.226;-97.150;2022-12-18T06:28:58;1.70;99.90
17740;DHT22;8990;33.226;-97.150;2022-12-18T06:31:29;1.70;99.90
17740;DHT22;8990;33.226;-97.150;2022-12-18T06:33:58;1.70;99.90
17740;DHT22;8990;33.226;-97.150;2022-12-18T06:36:29;1.50;99.90
17740;DHT22;8990;33.226;-97.150;2022-12-18T06:38:58;1.50;99.90
17740;DHT22;8990;33.226;-97.150;2022-12-18T06:41:27;1.50;99.90
17740;DHT22;8990;33.226;-97.150;2022-12-18T06:43:58;1.50;99.90
17740;DHT22;8990;33.226;-97.150;2022-12-18T06:46:30;1.60;99.90
17740;DHT22;8990;33.226;-97.150;2022-12-18T06:48:59;1.60;99.90
17740;DHT22;8990;33.226;-97.150;2022-12-18T06:51:28;1.60;99.90
17740;DHT22;8990;33.226;-97.150;2022-12-18T06:53:58;1.60;99.90
17740;DHT22;8990;33.226;-97.150;2022-12-18T06:56:28;1.60;99.90
17740;DHT22;8990;33.226;-97.150;2022-12-18T06:58:57;1.50;99.90
17740;DHT22;8990;33.226;-97.150;2022-12-18T07:01:26;1.30;99.90
17740;DHT22;8990;33.226;-97.150;2022-12-18T07:03:57;1.40;99.90
17740;DHT22;8990;33.226;-97.150;2022-12-18T07:06:27;1.40;99.90
17740;DHT22;8990;33.226;-97.150;2022-12-18T07:08:56;1.30;99.90
17740;DHT22;8990;33.226;-97.150;2022-12-18T07:11:26;1.10;99.90
17740;DHT22;8990;33.226;-97.150;2022-12-18T07:13:56;1.20;99.90
17740;DHT22;8990;33.226;-97.150;2022-12-18T07:16:27;1.10;99.90
17740;DHT22;8990;33.226;-97.150;2022-12-18T07:18:58;1.00;99.90
17740;DHT22;8990;33.226;-97.150;2022-12-18T07:21:27;1.00;99.90
17740;DHT22;8990;33.226;-97.150;2022-12-18T07:23:57;1.00;99.90
17740;DHT22;8990;33.226;-97.150;2022-12-18T07:26:26;1.00;99.90
17740;DHT22;8990;33.226;-97.150;2022-12-18T07:28:57;1.00;99.90
17740;DHT22;8990;33.226;-97.150;2022-12-18T07:31:27;1.00;99.90
17740;DHT22;8990;33.226;-97.150;2022-12-18T07:33:57;0.80;99.90
17740;DHT22;8990;33.226;-97.150;2022-12-18T07:36:28;0.70;99.90
17740;DHT22;8990;33.226;-97.150;2022-12-18T07:38:59;0.70;99.90
17740;DHT22;8990;33.226;-97.150;2022-12-18T07:41:28;0.70;99.90
17740;DHT22;8990;33.226;-97.150;2022-12-18T07:44:00;0.70;99.90
17740;DHT22;8990;33.226;-97.150;2022-12-18T07:46:30;0.70;99.90
17740;DHT22;8990;33.226;-97.150;2022-12-18T07:49:00;0.80;99.90
17740;DHT22;8990;33.226;-97.150;2022-12-18T07:51:29;0.80;99.90
17740;DHT22;8990;33.226;-97.150;2022-12-18T07:53:58;0.90;99.90
17740;DHT22;8990;33.226;-97.150;2022-12-18T07:56:27;0.90;99.90
17740;DHT22;8990;33.226;-97.150;2022-12-18T07:58:57;0.90;99.90
17740;DHT22;8990;33.226;-97.150;2022-12-18T08:01:27;0.90;99.90
17740;DHT22;8990;33.226;-97.150;2022-12-18T08:03:56;0.90;99.90
17740;DHT22;8990;33.226;-97.150;2022-12-18T08:06:27;0.90;99.90
17740;DHT22;8990;33.226;-97.150;2022-12-18T08:08:56;0.90;99.90
17740;DHT22;8990;33.226;-97.150;2022-12-18T08:11:27;0.90;99.90
17740;DHT22;8990;33.226;-97.150;2022-12-18T08:13:58;0.90;99.90
17740;DHT22;8990;33.226;-97.150;2022-12-18T08:16:27;0.90;99.90
17740;DHT22;8990;33.226;-97.150;2022-12-18T08:18:57;0.90;99.90
17740;DHT22;8990;33.226;-97.150;2022-12-18T08:21:30;0.90;99.90
17740;DHT22;8990;33.226;-97.150;2022-12-18T08:24:00;0.90;99.90
17740;DHT22;8990;33.226;-97.150;2022-12-18T08:26:30;0.90;99.90
17740;DHT22;8990;33.226;-97.150;2022-12-18T08:29:00;0.90;99.90
17740;DHT22;8990;33.226;-97.150;2022-12-18T08:31:30;0.90;99.90
17740;DHT22;8990;33.226;-97.150;2022-12-18T08:34:00;0.90;99.90
17740;DHT22;8990;33.226;-97.150;2022-12-18T08:36:35;0.80;99.90
17740;DHT22;8990;33.226;-97.150;2022-12-18T08:39:04;0.70;99.90
17740;DHT22;8990;33.226;-97.150;2022-12-18T08:41:34;0.80;99.90
17740;DHT22;8990;33.226;-97.150;2022-12-18T08:44:03;0.70;99.90
17740;DHT22;8990;33.226;-97.150;2022-12-18T08:46:50;0.70;99.90
17740;DHT22;8990;33.226;-97.150;2022-12-18T08:49:20;0.80;99.90
17740;DHT22;8990;33.226;-97.150;2022-12-18T08:51:54;0.80;99.90
17740;DHT22;8990;33.226;-97.150;2022-12-18T08:54:25;0.80;99.90
17740;DHT22;8990;33.226;-97.150;2022-12-18T08:56:54;0.90;99.90
17740;DHT22;8990;33.226;-97.150;2022-12-18T08:59:23;0.90;99.90
17740;DHT22;8990;33.226;-97.150;2022-12-18T09:01:56;0.90;99.90
17740;DHT22;8990;33.226;-97.150;2022-12-18T09:04:26;0.80;99.90
17740;DHT22;8990;33.226;-97.150;2022-12-18T09:06:58;0.90;99.90
17740;DHT22;8990;33.226;-97.150;2022-12-18T09:09:28;0.70;99.90
17740;DHT22;8990;33.226;-97.150;2022-12-18T09:11:57;0.70;99.90
17740;DHT22;8990;33.226;-97.150;2022-12-18T09:14:26;0.60;99.90
17740;DHT22;8990;33.226;-97.150;2022-12-18T09:16:55;0.60;99.90
17740;DHT22;8990;33.226;-97.150;2022-12-18T09:19:24;0.60;99.90
17740;DHT22;8990;33.226;-97.150;2022-12-18T09:21:54;0.60;99.90
17740;DHT22;8990;33.226;-97.150;2022-12-18T09:24:25;0.60;99.90
17740;DHT22;8990;33.226;-97.150;2022-12-18T09:26:55;0.60;99.90
17740;DHT22;8990;33.226;-97.150;2022-12-18T09:29:25;0.60;99.90
17740;DHT22;8990;33.226;-97.150;2022-12-18T09:31:56;0.60;99.90
17740;DHT22;8990;33.226;-97.150;2022-12-18T09:34:25;0.60;99.90
17740;DHT22;8990;33.226;-97.150;2022-12-18T09:36:55;0.60;99.90
17740;DHT22;8990;33.226;-97.150;2022-12-18T09:39:26;0.60;99.90
17740;DHT22;8990;33.226;-97.150;2022-12-18T09:41:57;0.60;99.90
17740;DHT22;8990;33.226;-97.150;2022-12-18T09:44:28;0.50;99.90
17740;DHT22;8990;33.226;-97.150;2022-12-18T09:47:04;0.50;99.90
17740;DHT22;8990;33.226;-97.150;2022-12-18T09:49:39;0.50;99.90
17740;DHT22;8990;33.226;-97.150;2022-12-18T09:52:15;0.50;99.90
17740;DHT22;8990;33.226;-97.150;2022-12-18T09:54:51;0.50;99.90
17740;DHT22;8990;33.226;-97.150;2022-12-18T09:57:23;0.60;99.90
17740;DHT22;8990;33.226;-97.150;2022-12-18T09:59:56;0.40;99.90
17740;DHT22;8990;33.226;-97.150;2022-12-18T10:02:30;0.40;99.90
17740;DHT22;8990;33.226;-97.150;2022-12-18T10:05:06;0.40;99.90
17740;DHT22;8990;33.226;-97.150;2022-12-18T10:07:50;0.40;99.90
17740;DHT22;8990;33.226;-97.150;2022-12-18T10:10:38;0.40;99.90
17740;DHT22;8990;33.226;-97.150;2022-12-18T10:13:15;0.40;99.90
17740;DHT22;8990;33.226;-97.150;2022-12-18T10:15:54;0.30;99.90
17740;DHT22;8990;33.226;-97.150;2022-12-18T10:18:38;0.40;99.90
17740;DHT22;8990;33.226;-97.150;2022-12-18T10:21:11;0.30;99.90
17740;DHT22;8990;33.226;-97.150;2022-12-18T10:23:49;0.40;99.90
17740;DHT22;8990;33.226;-97.150;2022-12-18T10:26:25;0.30;99.90
17740;DHT22;8990;33.226;-97.150;2022-12-18T10:28:55;0.30;99.90
17740;DHT22;8990;33.226;-97.150;2022-12-18T10:31:26;0.20;99.90
17740;DHT22;8990;33.226;-97.150;2022-12-18T10:33:55;0.10;99.90
17740;DHT22;8990;33.226;-97.150;2022-12-18T10:36:25;0.00;99.90
17740;DHT22;8990;33.226;-97.150;2022-12-18T10:39:15;-0.10;99.90
17740;DHT22;8990;33.226;-97.150;2022-12-18T10:41:47;-0.10;99.90
17740;DHT22;8990;33.226;-97.150;2022-12-18T10:44:18;-0.10;99.90
17740;DHT22;8990;33.226;-97.150;2022-12-18T10:46:50;-0.10;99.90
17740;DHT22;8990;33.226;-97.150;2022-12-18T10:49:23;0.00;99.90
17740;DHT22;8990;33.226;-97.150;2022-12-18T10:52:07;0.00;99.90
17740;DHT22;8990;33.226;-97.150;2022-12-18T10:54:48;0.10;99.90
17740;DHT22;8990;33.226;-97.150;2022-12-18T10:57:31;0.10;99.90
17740;DHT22;8990;33.226;-97.150;2022-12-18T11:00:21;0.10;99.90
17740;DHT22;8990;33.226;-97.150;2022-12-18T11:02:52;-0.30;99.90
17740;DHT22;8990;33.226;-97.150;2022-12-18T11:05:27;0.00;99.90
17740;DHT22;8990;33.226;-97.150;2022-12-18T11:07:58;-0.10;99.90
17740;DHT22;8990;33.226;-97.150;2022-12-18T11:10:31;-0.10;99.90
17740;DHT22;8990;33.226;-97.150;2022-12-18T11:13:16;-0.10;99.90
17740;DHT22;8990;33.226;-97.150;2022-12-18T11:15:47;-0.10;99.90
17740;DHT22;8990;33.226;-97.150;2022-12-18T11:18:22;0.00;99.90
17740;DHT22;8990;33.226;-97.150;2022-12-18T11:20:55;0.00;99.90
17740;DHT22;8990;33.226;-97.150;2022-12-18T11:23:26;-0.10;99.90
17740;DHT22;8990;33.226;-97.150;2022-12-18T11:26:01;-0.10;99.90
17740;DHT22;8990;33.226;-97.150;2022-12-18T11:28:41;-0.20;99.90
17740;DHT22;8990;33.226;-97.150;2022-12-18T11:31:22;-0.20;99.90
17740;DHT22;8990;33.226;-97.150;2022-12-18T11:34:00;-0.10;99.90
17740;DHT22;8990;33.226;-97.150;2022-12-18T11:36:33;-0.10;99.90
17740;DHT22;8990;33.226;-97.150;2022-12-18T11:39:09;-0.20;99.90
17740;DHT22;8990;33.226;-97.150;2022-12-18T11:41:47;-0.10;99.90
17740;DHT22;8990;33.226;-97.150;2022-12-18T11:44:48;-0.10;99.90
17740;DHT22;8990;33.226;-97.150;2022-12-18T11:47:27;-0.10;99.90
17740;DHT22;8990;33.226;-97.150;2022-12-18T11:50:01;-0.20;99.90
17740;DHT22;8990;33.226;-97.150;2022-12-18T11:52:36;-0.20;99.90
17740;DHT22;8990;33.226;-97.150;2022-12-18T11:55:12;-0.20;99.90
17740;DHT22;8990;33.226;-97.150;2022-12-18T11:57:47;-0.30;99.90
17740;DHT22;8990;33.226;-97.150;2022-12-18T12:00:23;-0.30;99.90
17740;DHT22;8990;33.226;-97.150;2022-12-18T12:03:21;-0.20;99.90
17740;DHT22;8990;33.226;-97.150;2022-12-18T12:06:03;-0.30;99.90
17740;DHT22;8990;33.226;-97.150;2022-12-18T12:08:46;-0.30;99.90
17740;DHT22;8990;33.226;-97.150;2022-12-18T12:11:25;-0.40;99.90
17740;DHT22;8990;33.226;-97.150;2022-12-18T12:14:12;-0.40;99.90
17740;DHT22;8990;33.226;-97.150;2022-12-18T12:16:52;-0.40;99.90
17740;DHT22;8990;33.226;-97.150;2022-12-18T12:19:34;-0.40;99.90
17740;DHT22;8990;33.226;-97.150;2022-12-18T12:22:10;-0.40;99.90
17740;DHT22;8990;33.226;-97.150;2022-12-18T12:24:53;-0.40;99.90
17740;DHT22;8990;33.226;-97.150;2022-12-18T12:27:34;-0.30;99.90
17740;DHT22;8990;33.226;-97.150;2022-12-18T12:30:08;-0.40;99.90
17740;DHT22;8990;33.226;-97.150;2022-12-18T12:33:02;-0.30;99.90
17740;DHT22;8990;33.226;-97.150;2022-12-18T12:35:44;-0.30;99.90
17740;DHT22;8990;33.226;-97.150;2022-12-18T12:38:17;-0.40;99.90
17740;DHT22;8990;33.226;-97.150;2022-12-18T12:40:51;-0.40;99.90
17740;DHT22;8990;33.226;-97.150;2022-12-18T12:43:33;-0.40;99.90
17740;DHT22;8990;33.226;-97.150;2022-12-18T12:46:05;-0.40;99.90
17740;DHT22;8990;33.226;-97.150;2022-12-18T12:48:42;-0.40;99.90
17740;DHT22;8990;33.226;-97.150;2022-12-18T12:51:18;-0.40;99.90
17740;DHT22;8990;33.226;-97.150;2022-12-18T12:53:48;-0.40;99.90
17740;DHT22;8990;33.226;-97.150;2022-12-18T12:56:19;-0.50;99.90
17740;DHT22;8990;33.226;-97.150;2022-12-18T12:58:55;-0.50;99.90
17740;DHT22;8990;33.226;-97.150;2022-12-18T13:01:33;-0.50;99.90
17740;DHT22;8990;33.226;-97.150;2022-12-18T13:04:15;-0.40;99.90
17740;DHT22;8990;33.226;-97.150;2022-12-18T13:06:53;-0.40;99.90
17740;DHT22;8990;33.226;-97.150;2022-12-18T13:09:24;-0.40;99.90
17740;DHT22;8990;33.226;-97.150;2022-12-18T13:12:02;-0.40;99.90
17740;DHT22;8990;33.226;-97.150;2022-12-18T13:14:49;-0.40;99.90
17740;DHT22;8990;33.226;-97.150;2022-12-18T13:17:29;-0.40;99.90
17740;DHT22;8990;33.226;-97.150;2022-12-18T13:20:10;-0.40;99.90
17740;DHT22;8990;33.226;-97.150;2022-12-18T13:22:43;-0.50;99.90
17740;DHT22;8990;33.226;-97.150;2022-12-18T13:25:30;-0.50;99.90
17740;DHT22;8990;33.226;-97.150;2022-12-18T13:28:08;-0.60;99.90
17740;DHT22;8990;33.226;-97.150;2022-12-18T13:30:55;-0.50;99.90
17740;DHT22;8990;33.226;-97.150;2022-12-18T13:33:40;-0.50;99.90
17740;DHT22;8990;33.226;-97.150;2022-12-18T13:36:27;-0.50;99.90
17740;DHT22;8990;33.226;-97.150;2022-12-18T13:39:34;-0.60;99.90
17740;DHT22;8990;33.226;-97.150;2022-12-18T13:45:41;-0.60;99.90
17740;DHT22;8990;33.226;-97.150;2022-12-18T13:48:17;-0.60;99.90
17740;DHT22;8990;33.226;-97.150;2022-12-18T13:50:53;-0.60;99.90
17740;DHT22;8990;33.226;-97.150;2022-12-18T13:53:29;-0.50;99.90
17740;DHT22;8990;33.226;-97.150;2022-12-18T13:55:59;-0.50;99.90
17740;DHT22;8990;33.226;-97.150;2022-12-18T13:58:28;-0.50;99.90
17740;DHT22;8990;33.226;-97.150;2022-12-18T14:00:57;-0.50;99.90
17740;DHT22;8990;33.226;-97.150;2022-12-18T14:03:30;-0.40;99.90
17740;DHT22;8990;33.226;-97.150;2022-12-18T14:06:05;-0.30;99.90
17740;DHT22;8990;33.226;-97.150;2022-12-18T14:08:39;-0.30;99.90
17740;DHT22;8990;33.226;-97.150;2022-12-18T14:11:19;-0.20;99.90
17740;DHT22;8990;33.226;-97.150;2022-12-18T14:13:50;-0.10;99.90
17740;DHT22;8990;33.226;-97.150;2022-12-18T14:16:20;0.00;99.90
17740;DHT22;8990;33.226;-97.150;2022-12-18T14:18:53;0.00;99.90
17740;DHT22;8990;33.226;-97.150;2022-12-18T14:21:26;0.10;99.90
17740;DHT22;8990;33.226;-97.150;2022-12-18T14:24:11;0.20;99.90
17740;DHT22;8990;33.226;-97.150;2022-12-18T14:26:42;0.30;99.90
17740;DHT22;8990;33.226;-97.150;2022-12-18T14:29:25;0.50;99.90
17740;DHT22;8990;33.226;-97.150;2022-12-18T14:32:11;0.60;99.90
17740;DHT22;8990;33.226;-97.150;2022-12-18T14:34:43;0.70;99.90
17740;DHT22;8990;33.226;-97.150;2022-12-18T14:37:14;0.80;99.90
17740;DHT22;8990;33.226;-97.150;2022-12-18T14:39:54;0.90;99.90
17740;DHT22;8990;33.226;-97.150;2022-12-18T14:42:26;1.10;99.90
17740;DHT22;8990;33.226;-97.150;2022-12-18T14:45:32;1.20;99.90
17740;DHT22;8990;33.226;-97.150;2022-12-18T14:48:07;1.40;99.90
17740;DHT22;8990;33.226;-97.150;2022-12-18T14:50:36;1.60;99.90
17740;DHT22;8990;33.226;-97.150;2022-12-18T14:53:20;1.80;99.90
17740;DHT22;8990;33.226;-97.150;2022-12-18T14:55:51;2.00;99.90
17740;DHT22;8990;33.226;-97.150;2022-12-18T14:58:22;2.20;99.90
17740;DHT22;8990;33.226;-97.150;2022-12-18T15:00:52;2.30;99.90
17740;DHT22;8990;33.226;-97.150;2022-12-18T15:03:22;2.50;99.90
17740;DHT22;8990;33.226;-97.150;2022-12-18T15:05:52;2.70;99.90
17740;DHT22;8990;33.226;-97.150;2022-12-18T15:08:34;2.80;99.90
17740;DHT22;8990;33.226;-97.150;2022-12-18T15:11:31;3.00;99.90
17740;DHT22;8990;33.226;-97.150;2022-12-18T15:14:22;3.20;99.90
17740;DHT22;8990;33.226;-97.150;2022-12-18T15:16:53;3.50;99.90
17740;DHT22;8990;33.226;-97.150;2022-12-18T15:19:35;3.70;99.90
17740;DHT22;8990;33.226;-97.150;2022-12-18T15:22:04;3.90;99.90
17740;DHT22;8990;33.226;-97.150;2022-12-18T15:24:42;4.10;99.90
17740;DHT22;8990;33.226;-97.150;2022-12-18T15:27:23;4.30;99.90
17740;DHT22;8990;33.226;-97.150;2022-12-18T15:30:02;4.50;99.90
17740;DHT22;8990;33.226;-97.150;2022-12-18T15:32:32;4.80;99.90
17740;DHT22;8990;33.226;-97.150;2022-12-18T15:35:13;5.00;99.90
17740;DHT22;8990;33.226;-97.150;2022-12-18T15:37:43;5.30;99.90
17740;DHT22;8990;33.226;-97.150;2022-12-18T15:40:14;5.40;99.90
17740;DHT22;8990;33.226;-97.150;2022-12-18T15:42:46;5.60;99.90
17740;DHT22;8990;33.226;-97.150;2022-12-18T15:45:34;5.80;99.90
17740;DHT22;8990;33.226;-97.150;2022-12-18T15:48:15;6.10;99.90
17740;DHT22;8990;33.226;-97.150;2022-12-18T15:50:47;6.20;99.90
17740;DHT22;8990;33.226;-97.150;2022-12-18T15:53:18;6.40;99.90
17740;DHT22;8990;33.226;-97.150;2022-12-18T15:55:47;6.50;99.90
17740;DHT22;8990;33.226;-97.150;2022-12-18T15:58:34;6.70;99.90
17740;DHT22;8990;33.226;-97.150;2022-12-18T16:01:03;6.80;99.90
17740;DHT22;8990;33.226;-97.150;2022-12-18T16:03:33;7.00;99.90
17740;DHT22;8990;33.226;-97.150;2022-12-18T16:06:03;7.10;99.90
17740;DHT22;8990;33.226;-97.150;2022-12-18T16:08:32;7.20;99.90
17740;DHT22;8990;33.226;-97.150;2022-12-18T16:11:02;7.40;99.90
17740;DHT22;8990;33.226;-97.150;2022-12-18T16:13:34;7.50;99.90